MPTO

Tocumen International Airport

ICAO Code MPTO
IATA Code PTY
Name Tocumen International Airport
Location Tocumen, Panama, PA
Elevation 135 Feet / 41.1 Meters
Latitude 9.07135963
Longitude -79.38349915
METAR MPTO 210915Z 30004KT 8000 -TSRA SCT005 BKN016CB 26/24 Q1011 RWY WET TEMPO 5000 TSRA
Extra information Display Charts and CFS
Display NOTAMS
Runway Length Width Surface Elevation
03L 8800 ft 200 ft ASP 56 ft
03R 10006 ft 148 ft CON 22 ft
21R 8800 ft 200 ft ASP 135 ft
21L 10006 ft 148 ft CON 36 ft